createdAt,value
2022-12-15T00:01:01.711Z,-2.60
2022-12-15T00:05:22.899Z,-2.60
2022-12-15T00:09:49.721Z,-2.80
2022-12-15T00:14:37.148Z,-2.80
2022-12-15T00:24:33.342Z,-3.00
2022-12-15T00:28:54.299Z,-3.00
2022-12-15T00:48:19.172Z,-3.10
2022-12-15T01:03:55.408Z,-2.80
2022-12-15T01:14:04.049Z,-2.80
2022-12-15T01:24:12.783Z,-2.90
2022-12-15T01:28:14.910Z,-2.90
2022-12-15T01:59:41.383Z,-3.00
2022-12-15T02:03:54.452Z,-3.00
2022-12-15T02:19:54.635Z,-3.10
2022-12-15T02:24:29.053Z,-3.10
2022-12-15T02:35:09.491Z,-3.00
2022-12-15T02:45:17.430Z,-3.10
2022-12-15T03:07:28.613Z,-3.20
2022-12-15T03:40:32.588Z,-3.30
2022-12-15T05:10:42.986Z,-3.50
2022-12-15T06:26:53.072Z,-4.00
2022-12-15T06:30:56.604Z,-4.00
2022-12-15T06:34:59.089Z,-3.90
2022-12-15T06:39:02.988Z,-3.80
2022-12-15T06:43:07.171Z,-3.80
2022-12-15T06:47:09.594Z,-3.90
2022-12-15T06:51:17.145Z,-4.00
2022-12-15T06:55:19.628Z,-4.00
2022-12-15T06:59:21.668Z,-3.90
2022-12-15T07:03:24.098Z,-3.90
2022-12-15T07:07:27.856Z,-3.90
2022-12-15T07:11:30.069Z,-3.80
2022-12-15T07:15:32.787Z,-3.80
2022-12-15T07:19:34.957Z,-3.70
2022-12-15T07:23:53.101Z,-3.60
2022-12-15T07:37:38.005Z,-3.60
2022-12-15T07:41:40.906Z,-3.50
2022-12-15T07:45:49.777Z,-3.50
2022-12-15T07:49:55.227Z,-3.50
2022-12-15T07:53:57.329Z,-3.50
2022-12-15T07:58:00.588Z,-3.40
2022-12-15T08:02:07.304Z,-3.50
2022-12-15T08:06:13.322Z,-3.40
2022-12-15T08:10:15.431Z,-3.20
2022-12-15T08:14:18.948Z,-3.00
2022-12-15T08:18:21.394Z,-2.90
2022-12-15T08:22:25.456Z,-2.80
2022-12-15T08:26:30.567Z,-2.70
2022-12-15T08:30:34.650Z,-2.60
2022-12-15T08:34:37.092Z,-2.40
2022-12-15T08:38:40.893Z,-2.30
2022-12-15T08:42:44.013Z,-2.30
2022-12-15T08:46:47.317Z,-2.40
2022-12-15T08:50:49.227Z,-2.40
2022-12-15T08:54:52.025Z,-2.20
2022-12-15T08:58:59.822Z,-2.00
2022-12-15T09:03:02.246Z,-2.20
2022-12-15T09:11:42.851Z,-2.20
2022-12-15T09:25:49.588Z,-1.80
2022-12-15T09:35:28.710Z,-1.40
2022-12-15T09:50:56.242Z,-1.70
2022-12-15T09:55:21.975Z,-1.40
2022-12-15T09:59:42.043Z,-1.20
2022-12-15T10:04:21.304Z,-1.10
2022-12-15T10:08:51.445Z,-1.20
2022-12-15T10:13:16.587Z,-1.00
2022-12-15T10:17:58.653Z,-0.90
2022-12-15T10:26:38.242Z,-0.50
2022-12-15T10:31:10.951Z,-0.30
2022-12-15T10:35:30.502Z,-0.10
2022-12-15T10:39:44.238Z,-0.10
2022-12-15T10:43:57.917Z,-0.30
2022-12-15T10:48:10.329Z,-0.50
2022-12-15T10:52:38.084Z,-0.60
2022-12-15T10:56:55.563Z,-0.50
2022-12-15T11:01:15.242Z,-0.50
2022-12-15T11:05:20.016Z,-0.50
2022-12-15T11:09:47.816Z,-0.60
2022-12-15T11:14:18.142Z,-0.80
2022-12-15T11:23:46.691Z,-1.00
2022-12-15T11:27:58.463Z,-1.10
2022-12-15T11:32:09.105Z,-1.20
2022-12-15T11:37:12.816Z,-1.30
2022-12-15T11:41:52.256Z,-1.30
2022-12-15T11:46:25.126Z,-1.40
2022-12-15T11:50:30.963Z,-1.40
2022-12-15T11:54:38.936Z,-1.50
2022-12-15T11:59:01.817Z,-1.50
2022-12-15T12:03:32.353Z,-1.50
2022-12-15T12:12:54.767Z,-1.50
2022-12-15T12:17:24.781Z,-1.50
2022-12-15T12:21:33.946Z,-1.70
2022-12-15T12:25:45.469Z,-1.70
2022-12-15T12:29:55.771Z,-1.80
2022-12-15T12:34:11.308Z,-1.90
2022-12-15T12:38:39.728Z,-2.00
2022-12-15T12:57:54.609Z,-2.20
2022-12-15T13:02:17.815Z,-2.30
2022-12-15T13:06:52.590Z,-2.30
2022-12-15T13:11:19.058Z,-2.40
2022-12-15T13:15:42.687Z,-2.30
2022-12-15T13:19:56.775Z,-2.40
2022-12-15T13:23:59.747Z,-2.40
2022-12-15T13:28:16.726Z,-2.40
2022-12-15T13:32:40.300Z,-2.40
2022-12-15T13:36:42.403Z,-2.30
2022-12-15T13:40:56.173Z,-2.40
2022-12-15T13:45:51.085Z,-2.40
2022-12-15T13:50:04.257Z,-2.30
2022-12-15T13:54:43.619Z,-2.50
2022-12-15T15:03:12.826Z,-2.00
2022-12-15T15:20:03.389Z,-3.30
2022-12-15T15:24:11.546Z,-3.30
2022-12-15T15:28:15.891Z,-3.40
2022-12-15T15:32:23.494Z,-3.40
2022-12-15T15:36:48.445Z,-3.40
2022-12-15T15:40:55.396Z,-3.50
2022-12-15T15:44:57.926Z,-3.60
2022-12-15T15:49:07.995Z,-3.60
2022-12-15T15:53:24.430Z,-3.70
2022-12-15T15:57:26.601Z,-3.70
2022-12-15T16:01:28.667Z,-3.80
2022-12-15T16:05:31.330Z,-3.80
2022-12-15T16:09:34.171Z,-3.80
2022-12-15T16:13:36.667Z,-3.80
2022-12-15T16:17:38.884Z,-3.80
2022-12-15T16:21:42.863Z,-3.70
2022-12-15T16:25:51.069Z,-3.60
2022-12-15T16:29:53.375Z,-3.60
2022-12-15T16:33:55.786Z,-3.70
2022-12-15T16:37:59.683Z,-3.70
2022-12-15T16:42:02.262Z,-3.70
2022-12-15T16:46:04.453Z,-3.70
2022-12-15T16:50:07.430Z,-3.90
2022-12-15T16:54:21.250Z,-3.90
2022-12-15T16:58:25.688Z,-3.90
2022-12-15T17:02:30.029Z,-3.90
2022-12-15T17:06:32.460Z,-3.90
2022-12-15T17:10:35.086Z,-3.90
2022-12-15T17:14:37.428Z,-3.90
2022-12-15T17:18:39.856Z,-3.90
2022-12-15T17:22:42.000Z,-3.90
2022-12-15T17:26:45.626Z,-3.90
2022-12-15T17:30:49.351Z,-4.00
2022-12-15T17:34:51.950Z,-4.00
2022-12-15T17:38:56.788Z,-4.00
2022-12-15T17:42:59.164Z,-4.00
2022-12-15T17:47:01.241Z,-4.00
2022-12-15T17:51:11.485Z,-4.00
2022-12-15T17:55:35.605Z,-4.00
2022-12-15T17:59:38.363Z,-4.00
2022-12-15T18:09:28.165Z,-3.90
2022-12-15T18:18:31.136Z,-3.90
2022-12-15T18:39:31.252Z,-3.90
2022-12-15T18:43:58.561Z,-3.90
2022-12-15T18:53:03.204Z,-4.00
2022-12-15T19:02:17.563Z,-3.90
2022-12-15T19:21:00.589Z,-3.90
2022-12-15T19:30:18.824Z,-3.90
2022-12-15T19:34:28.697Z,-3.90
2022-12-15T19:48:00.568Z,-3.80
2022-12-15T19:59:01.968Z,-3.80
2022-12-15T20:15:14.061Z,-3.70
2022-12-15T21:06:41.934Z,-3.90
2022-12-15T21:23:59.683Z,-3.90
2022-12-15T21:59:23.743Z,-3.80
2022-12-15T22:03:26.811Z,-3.80
2022-12-15T22:07:28.970Z,-3.70
2022-12-15T22:11:32.579Z,-3.60
2022-12-15T22:15:35.968Z,-3.70
2022-12-15T22:19:39.398Z,-3.70
2022-12-15T22:23:44.304Z,-3.80
2022-12-15T22:42:30.187Z,-3.80
2022-12-15T23:28:27.605Z,-3.70
2022-12-15T23:41:46.237Z,-3.70
2022-12-15T23:46:06.292Z,-3.80
2022-12-15T23:50:15.573Z,-3.70
2022-12-15T23:59:44.236Z,-3.70
